createdAt,value
2023-11-22T00:00:57.624Z,-0.08
2023-11-22T00:01:57.758Z,-0.08
2023-11-22T00:02:57.859Z,0
2023-11-22T00:03:57.985Z,-0.08
2023-11-22T00:04:58.156Z,-0.08
2023-11-22T00:05:58.276Z,-0.24
2023-11-22T00:06:58.431Z,-0.08
2023-11-22T00:07:58.605Z,-0.24
2023-11-22T00:08:58.736Z,-0.08
2023-11-22T00:09:58.890Z,-0.08
2023-11-22T00:10:59.084Z,-0.24
2023-11-22T00:11:59.141Z,-0.32
2023-11-22T00:12:59.297Z,-0.24
2023-11-22T00:13:59.454Z,-0.24
2023-11-22T00:14:59.602Z,-0.24
2023-11-22T00:15:59.747Z,-0.32
2023-11-22T00:16:59.953Z,-0.24
2023-11-22T00:18:00.091Z,-0.24
2023-11-22T00:19:00.254Z,-0.32
2023-11-22T00:20:00.402Z,-0.4
2023-11-22T00:21:00.518Z,-0.32
2023-11-22T00:22:00.653Z,-0.32
2023-11-22T00:23:00.821Z,-0.32
2023-11-22T00:24:00.963Z,-0.4
2023-11-22T00:25:01.116Z,-0.4
2023-11-22T00:26:01.277Z,-0.32
2023-11-22T00:27:01.424Z,-0.4
2023-11-22T00:28:01.564Z,-0.4
2023-11-22T00:29:01.729Z,-0.48
2023-11-22T00:30:01.897Z,-0.64
2023-11-22T00:31:02.049Z,-0.4
2023-11-22T00:32:02.173Z,-0.48
2023-11-22T00:33:02.397Z,-0.48
2023-11-22T00:34:02.483Z,-0.64
2023-11-22T00:35:02.644Z,-0.48
2023-11-22T00:36:02.773Z,-0.48
2023-11-22T00:37:02.932Z,-0.48
2023-11-22T00:38:03.092Z,-0.48
2023-11-22T00:39:03.234Z,-0.48
2023-11-22T00:40:03.383Z,-0.64
2023-11-22T00:41:03.552Z,-0.48
2023-11-22T00:42:03.687Z,-0.48
2023-11-22T00:43:03.870Z,-0.48
2023-11-22T00:44:03.997Z,-0.48
2023-11-22T00:45:04.144Z,-0.48
2023-11-22T00:46:04.316Z,-0.4
2023-11-22T00:47:04.490Z,-0.48
2023-11-22T00:48:04.614Z,-0.48
2023-11-22T00:49:04.696Z,-0.48
2023-11-22T00:50:04.862Z,-0.48
2023-11-22T00:51:04.997Z,-0.32
2023-11-22T00:52:05.165Z,-0.48
2023-11-22T00:53:05.338Z,-0.48
2023-11-22T00:54:05.463Z,-0.48
2023-11-22T00:55:05.621Z,-0.64
2023-11-22T00:56:05.773Z,-0.48
2023-11-22T00:57:05.908Z,-0.48
2023-11-22T00:58:06.071Z,-0.64
2023-11-22T00:59:06.223Z,-0.64
2023-11-22T01:00:06.379Z,-0.64
2023-11-22T01:01:06.514Z,-0.48
2023-11-22T01:02:06.817Z,-0.64
2023-11-22T01:03:06.919Z,-0.48
2023-11-22T01:04:07.009Z,-0.48
2023-11-22T01:05:07.137Z,-0.64
2023-11-22T01:06:07.272Z,-0.48
2023-11-22T01:07:07.418Z,-0.64
2023-11-22T01:08:07.619Z,-0.48
2023-11-22T01:09:07.728Z,-0.48
2023-11-22T01:10:07.893Z,-0.64
2023-11-22T01:11:08.052Z,-0.48
2023-11-22T01:12:08.181Z,-0.64
2023-11-22T01:13:08.344Z,-0.64
2023-11-22T01:14:08.576Z,-0.64
2023-11-22T01:15:08.634Z,-0.48
2023-11-22T01:16:08.791Z,-0.64
2023-11-22T01:17:08.977Z,-0.64
2023-11-22T01:18:09.096Z,-0.64
2023-11-22T01:19:09.269Z,-0.64
2023-11-22T01:20:09.421Z,-0.64
2023-11-22T01:21:09.541Z,-0.48
2023-11-22T01:22:09.693Z,-0.64
2023-11-22T01:23:09.864Z,-0.48
2023-11-22T01:24:10.001Z,-0.72
2023-11-22T01:25:10.173Z,-0.72
2023-11-22T01:26:10.316Z,-0.72
2023-11-22T01:27:10.454Z,-0.72
2023-11-22T01:28:10.601Z,-0.72
2023-11-22T01:29:10.767Z,-0.64
2023-11-22T01:30:10.908Z,-0.72
2023-11-22T01:31:11.084Z,-0.64
2023-11-22T01:32:11.251Z,-0.72
2023-11-22T01:33:11.373Z,-0.72
2023-11-22T01:34:11.513Z,-0.72
2023-11-22T01:35:11.708Z,-0.64
2023-11-22T01:36:11.820Z,-0.72
2023-11-22T01:37:11.971Z,-0.72
2023-11-22T01:38:12.143Z,-0.72
2023-11-22T01:39:12.278Z,-0.72
2023-11-22T01:40:12.437Z,-0.72
2023-11-22T01:41:12.622Z,-0.64
2023-11-22T01:42:12.725Z,-0.48
2023-11-22T01:43:12.839Z,-0.48
2023-11-22T01:44:13.059Z,-0.48
2023-11-22T01:45:13.132Z,-0.4
2023-11-22T01:46:13.303Z,-0.64
2023-11-22T01:47:13.444Z,-0.72
2023-11-22T01:48:13.626Z,-0.64
2023-11-22T01:49:13.749Z,-0.72
2023-11-22T01:50:13.902Z,-0.72
2023-11-22T01:51:14.040Z,-0.72
2023-11-22T01:52:14.193Z,-0.72
2023-11-22T01:53:14.369Z,-0.88
2023-11-22T01:54:14.520Z,-0.88
2023-11-22T01:55:14.614Z,-0.8
2023-11-22T01:56:14.759Z,-0.72
2023-11-22T01:57:14.901Z,-0.8
2023-11-22T01:58:15.052Z,-0.72
2023-11-22T01:59:15.255Z,-0.88
2023-11-22T02:00:15.356Z,-0.8
2023-11-22T02:01:15.515Z,-0.88
2023-11-22T02:02:15.741Z,-0.72
2023-11-22T02:03:15.924Z,-0.8
2023-11-22T02:04:16.111Z,-0.8
2023-11-22T02:05:16.121Z,-0.8
2023-11-22T02:06:16.262Z,-0.8
2023-11-22T02:07:16.420Z,-0.72
2023-11-22T02:08:16.594Z,-0.72
2023-11-22T02:09:16.826Z,-0.8
2023-11-22T02:10:16.876Z,-0.8
2023-11-22T02:11:17.071Z,-0.72
2023-11-22T02:12:17.176Z,-0.72
2023-11-22T02:13:17.348Z,-0.72
2023-11-22T02:14:17.537Z,-0.72
2023-11-22T02:15:17.632Z,-0.8
2023-11-22T02:16:17.807Z,-0.8
2023-11-22T02:17:18.011Z,-0.8
2023-11-22T02:18:18.107Z,-0.72
2023-11-22T02:19:18.231Z,-0.8
2023-11-22T02:20:18.426Z,-0.8
2023-11-22T02:21:18.537Z,-0.8
2023-11-22T02:22:18.689Z,-0.88
2023-11-22T02:23:18.842Z,-0.8
2023-11-22T02:24:19.000Z,-0.88
2023-11-22T02:25:19.144Z,-0.8
2023-11-22T02:26:19.596Z,-0.72
2023-11-22T02:27:19.455Z,-0.8
2023-11-22T02:28:19.608Z,-0.8
2023-11-22T02:29:19.773Z,-0.8
2023-11-22T02:30:19.908Z,-0.72
2023-11-22T02:31:20.064Z,-0.72
2023-11-22T02:32:20.228Z,-0.88
2023-11-22T02:33:20.367Z,-0.88
2023-11-22T02:34:20.535Z,-0.8
2023-11-22T02:35:20.710Z,-0.8
2023-11-22T02:36:20.819Z,-0.72
2023-11-22T02:37:20.962Z,-0.8
2023-11-22T02:38:21.134Z,-0.88
2023-11-22T02:39:21.265Z,-0.88
2023-11-22T02:40:21.442Z,-0.72
2023-11-22T02:41:21.600Z,-0.8
2023-11-22T02:42:21.737Z,-0.8
2023-11-22T02:43:21.900Z,-0.88
2023-11-22T02:44:22.039Z,-1.04
2023-11-22T02:45:22.172Z,-0.72
2023-11-22T02:46:22.343Z,-0.88
2023-11-22T02:47:22.515Z,-1.04
2023-11-22T02:48:22.643Z,-1.04
2023-11-22T02:49:22.782Z,-0.88
2023-11-22T02:50:22.959Z,-0.88
2023-11-22T02:51:23.077Z,-1.04
2023-11-22T02:52:23.241Z,-0.88
2023-11-22T02:53:23.431Z,-0.88
2023-11-22T02:54:23.537Z,-1.04
2023-11-22T02:55:23.683Z,-0.8
2023-11-22T02:56:23.897Z,-0.88
2023-11-22T02:57:23.992Z,-0.88
2023-11-22T02:58:24.193Z,-0.88
2023-11-22T02:59:24.305Z,-1.04
2023-11-22T03:00:24.455Z,-0.8
2023-11-22T03:01:24.622Z,-0.88
2023-11-22T03:02:24.765Z,-0.88
2023-11-22T03:03:25.053Z,-0.8
2023-11-22T03:04:25.048Z,-0.88
2023-11-22T03:05:25.439Z,-0.88
2023-11-22T03:06:25.374Z,-1.04
2023-11-22T03:07:25.509Z,-1.12
2023-11-22T03:08:25.739Z,-0.88
2023-11-22T03:09:25.810Z,-1.04
2023-11-22T03:10:25.978Z,-0.88
2023-11-22T03:11:26.158Z,-0.88
2023-11-22T03:12:26.220Z,-1.12
2023-11-22T03:13:26.371Z,-1.04
2023-11-22T03:14:26.586Z,-0.88
2023-11-22T03:15:26.664Z,-0.88
2023-11-22T03:16:26.851Z,-0.8
2023-11-22T03:17:26.997Z,-0.88
2023-11-22T03:18:27.134Z,-0.8
2023-11-22T03:19:27.277Z,-0.88
2023-11-22T03:20:27.394Z,-1.04
2023-11-22T03:21:27.532Z,-1.04
2023-11-22T03:22:27.680Z,-0.88
2023-11-22T03:23:27.855Z,-1.12
2023-11-22T03:24:27.990Z,-1.04
2023-11-22T03:25:28.139Z,-1.04
2023-11-22T03:26:28.265Z,-1.12
2023-11-22T03:27:28.401Z,-0.88
2023-11-22T03:28:28.594Z,-1.12
2023-11-22T03:29:28.720Z,-1.12
2023-11-22T03:30:28.857Z,-1.12
2023-11-22T03:31:29.008Z,-1.12
2023-11-22T03:32:29.162Z,-1.04
2023-11-22T03:33:29.287Z,-1.04
2023-11-22T03:34:29.371Z,-1.12
2023-11-22T03:35:29.521Z,-1.04
2023-11-22T03:36:29.652Z,-1.2
2023-11-22T03:37:29.806Z,-1.12
2023-11-22T03:38:30.012Z,-1.2
2023-11-22T03:39:30.108Z,-1.04
2023-11-22T03:40:30.259Z,-1.12
2023-11-22T03:41:30.436Z,-1.12
2023-11-22T03:42:30.568Z,-1.12
2023-11-22T03:43:30.729Z,-1.12
2023-11-22T03:44:30.875Z,-1.12
2023-11-22T03:45:31.027Z,-1.12
2023-11-22T03:46:31.219Z,-1.2
2023-11-22T03:47:31.423Z,-1.12
2023-11-22T03:48:31.517Z,-1.2
2023-11-22T03:49:31.628Z,-1.12
2023-11-22T03:50:31.799Z,-1.04
2023-11-22T03:51:31.938Z,-1.2
2023-11-22T03:52:32.077Z,-0.8
2023-11-22T03:53:32.255Z,-0.8
2023-11-22T03:54:32.388Z,-1.04
2023-11-22T03:55:32.560Z,-1.2
2023-11-22T03:56:32.719Z,-1.12
2023-11-22T03:57:32.837Z,-1.12
2023-11-22T03:58:32.989Z,-1.28
2023-11-22T03:59:33.157Z,-1.2
2023-11-22T04:00:33.345Z,-1.12
2023-11-22T04:01:33.488Z,-1.2
2023-11-22T04:02:33.642Z,-1.2
2023-11-22T04:03:33.804Z,-1.12
2023-11-22T04:04:33.907Z,-1.12
2023-11-22T04:05:34.071Z,-1.12
2023-11-22T04:06:34.212Z,-1.12
2023-11-22T04:07:34.352Z,-1.12
2023-11-22T04:08:34.525Z,-1.2
2023-11-22T04:09:34.654Z,-1.2
2023-11-22T04:10:34.809Z,-1.2
2023-11-22T04:11:34.980Z,-1.12
2023-11-22T04:12:36.831Z,-1.12
2023-11-22T04:13:35.265Z,-1.12
2023-11-22T04:14:35.456Z,-1.12
2023-11-22T04:15:35.564Z,-1.04
2023-11-22T04:16:35.720Z,-1.04
2023-11-22T04:17:35.919Z,-1.04
2023-11-22T04:18:36.030Z,-1.12
2023-11-22T04:19:36.172Z,-1.12
2023-11-22T04:20:36.347Z,-1.12
2023-11-22T04:21:36.427Z,-1.12
2023-11-22T04:22:36.587Z,-1.12
2023-11-22T04:23:36.747Z,-1.04
2023-11-22T04:24:36.885Z,-1.04
2023-11-22T04:25:37.032Z,-0.88
2023-11-22T04:26:37.163Z,-0.88
2023-11-22T04:27:37.288Z,-1.04
2023-11-22T04:28:37.451Z,-1.12
2023-11-22T04:29:37.627Z,-1.04
2023-11-22T04:30:37.742Z,-1.04
2023-11-22T04:31:37.889Z,-1.04
2023-11-22T04:32:38.153Z,-0.88
2023-11-22T04:33:38.304Z,-1.04
2023-11-22T04:34:38.343Z,-1.04
2023-11-22T04:35:38.503Z,-1.04
2023-11-22T04:36:38.651Z,-1.04
2023-11-22T04:37:38.798Z,-1.04
2023-11-22T04:38:38.999Z,-1.12
2023-11-22T04:39:39.100Z,-1.12
2023-11-22T04:40:39.261Z,-1.04
2023-11-22T04:41:39.426Z,-1.04
2023-11-22T04:42:39.549Z,-0.88
2023-11-22T04:43:39.747Z,-1.04
2023-11-22T04:44:39.856Z,-0.88
2023-11-22T04:45:40.039Z,-0.8
2023-11-22T04:46:40.174Z,-0.88
2023-11-22T04:47:40.385Z,-1.04
2023-11-22T04:48:40.480Z,-1.04
2023-11-22T04:49:40.618Z,-1.12
2023-11-22T04:50:40.830Z,-1.04
2023-11-22T04:51:40.923Z,-1.12
2023-11-22T04:52:41.073Z,-1.12
2023-11-22T04:53:41.235Z,-1.04
2023-11-22T04:54:41.376Z,-1.04
2023-11-22T04:55:41.528Z,-1.12
2023-11-22T04:56:41.715Z,-1.12
2023-11-22T04:57:41.839Z,-1.04
2023-11-22T04:58:41.981Z,-1.04
2023-11-22T04:59:42.173Z,-1.12
2023-11-22T05:00:42.299Z,-0.88
2023-11-22T05:01:42.434Z,-1.12
2023-11-22T05:02:42.672Z,-1.12
2023-11-22T05:03:42.796Z,-1.12
2023-11-22T05:04:42.897Z,-0.88
2023-11-22T05:05:43.087Z,-1.12
2023-11-22T05:06:43.206Z,-1.12
2023-11-22T05:07:43.341Z,-1.12
2023-11-22T05:08:43.518Z,-1.12
2023-11-22T05:09:43.650Z,-1.12
2023-11-22T05:10:43.799Z,-1.12
2023-11-22T05:11:43.968Z,-1.12
2023-11-22T05:12:44.103Z,-1.2
2023-11-22T05:13:44.259Z,-1.2
2023-11-22T05:14:44.406Z,-1.12
2023-11-22T05:15:44.580Z,-1.12
2023-11-22T05:16:44.707Z,-1.04
2023-11-22T05:17:44.940Z,-1.04
2023-11-22T05:19:45.765Z,-1.12
2023-11-22T05:21:46.095Z,-1.2
2023-11-22T05:23:46.821Z,-1.12
2023-11-22T05:25:46.993Z,-1.12
2023-11-22T05:27:46.796Z,-1.12
2023-11-22T05:29:50.605Z,-1.2
2023-11-22T05:31:47.600Z,-1.2
2023-11-22T05:32:47.432Z,-1.2
2023-11-22T05:33:47.595Z,-1.2
2023-11-22T05:35:48.826Z,-1.12
2023-11-22T05:36:48.221Z,-1.2
2023-11-22T05:37:48.550Z,-1.12
2023-11-22T05:38:48.312Z,-1.12
2023-11-22T05:39:48.580Z,-1.12
2023-11-22T05:40:48.658Z,-1.04
2023-11-22T05:41:49.221Z,-1.04
2023-11-22T05:43:49.464Z,-0.88
2023-11-22T05:44:49.240Z,-1.12
2023-11-22T05:45:49.616Z,-1.04
2023-11-22T05:46:49.110Z,-1.04
2023-11-22T05:47:49.288Z,-1.12
2023-11-22T05:48:49.416Z,-1.04
2023-11-22T05:49:49.629Z,-1.04
2023-11-22T05:50:49.790Z,-1.12
2023-11-22T05:51:49.856Z,-1.12
2023-11-22T05:52:50.012Z,-1.04
2023-11-22T05:53:50.170Z,-1.12
2023-11-22T05:54:50.353Z,-1.12
2023-11-22T05:55:50.450Z,-1.2
2023-11-22T05:56:50.659Z,-1.12
2023-11-22T05:57:50.774Z,-1.12
2023-11-22T05:58:50.924Z,-1.12
2023-11-22T05:59:51.073Z,-1.12
2023-11-22T06:00:51.226Z,-1.04
2023-11-22T06:01:51.378Z,-1.04
2023-11-22T06:02:51.586Z,-1.12
2023-11-22T06:03:51.748Z,-1.12
2023-11-22T06:04:51.880Z,-1.12
2023-11-22T06:05:51.968Z,-1.04
2023-11-22T06:06:52.034Z,-1.2
2023-11-22T06:07:52.189Z,-1.12
2023-11-22T06:08:52.338Z,-1.12
2023-11-22T06:09:52.491Z,-1.12
2023-11-22T06:10:52.594Z,-1.12
2023-11-22T06:11:52.747Z,-1.12
2023-11-22T06:12:52.894Z,-1.12
2023-11-22T06:13:53.050Z,-1.2
2023-11-22T06:14:53.196Z,-1.12
2023-11-22T06:15:53.343Z,-1.2
2023-11-22T06:16:53.452Z,-1.2
2023-11-22T06:17:53.695Z,-1.12
2023-11-22T06:18:53.748Z,-1.2
2023-11-22T06:19:53.912Z,-1.12
2023-11-22T06:20:54.059Z,-1.12
2023-11-22T06:21:55.755Z,-1.12
2023-11-22T06:23:54.471Z,-0.88
2023-11-22T06:24:54.622Z,-1.12
2023-11-22T06:25:54.770Z,-1.2
2023-11-22T06:26:54.915Z,-1.2
2023-11-22T06:27:55.080Z,-1.2
2023-11-22T06:28:55.218Z,-1.2
2023-11-22T06:29:55.371Z,-1.2
2023-11-22T06:30:55.517Z,-1.28
2023-11-22T06:31:55.674Z,-1.2
2023-11-22T06:32:55.852Z,-1.44
2023-11-22T06:33:56.029Z,-1.44
2023-11-22T06:34:56.129Z,-1.44
2023-11-22T06:35:56.279Z,-1.44
2023-11-22T06:36:56.431Z,-1.44
2023-11-22T06:37:56.593Z,-1.44
2023-11-22T06:38:56.732Z,-1.52
2023-11-22T06:39:56.836Z,-1.52
2023-11-22T06:40:57.001Z,-1.52
2023-11-22T06:41:57.137Z,-1.44
2023-11-22T06:42:57.292Z,-1.28
2023-11-22T06:43:57.438Z,-1.28
2023-11-22T06:44:57.593Z,-1.44
2023-11-22T06:45:57.771Z,-1.28
2023-11-22T06:46:57.899Z,-1.2
2023-11-22T06:47:58.113Z,-1.44
2023-11-22T06:48:58.258Z,-1.2
2023-11-22T06:49:58.365Z,-1.28
2023-11-22T06:50:58.511Z,-1.2
2023-11-22T06:51:58.653Z,-1.12
2023-11-22T06:52:58.813Z,-1.12
2023-11-22T06:53:59.141Z,-1.04
2023-11-22T06:54:59.109Z,-1.2
2023-11-22T06:55:59.262Z,-1.2
2023-11-22T06:56:59.412Z,-1.2
2023-11-22T06:57:59.563Z,-1.2
2023-11-22T06:58:59.717Z,-1.2
2023-11-22T06:59:59.875Z,-1.28
2023-11-22T07:01:00.032Z,-1.28
2023-11-22T07:02:00.227Z,-1.28
2023-11-22T07:03:00.472Z,-1.2
2023-11-22T07:04:00.612Z,-1.2
2023-11-22T07:05:00.676Z,-1.28
2023-11-22T07:06:00.806Z,-1.12
2023-11-22T07:07:00.924Z,-1.28
2023-11-22T07:08:01.080Z,-1.2
2023-11-22T07:09:01.237Z,-1.2
2023-11-22T07:10:01.384Z,-1.2
2023-11-22T07:11:01.541Z,-1.28
2023-11-22T07:12:01.698Z,-1.28
2023-11-22T07:13:01.810Z,-1.28
2023-11-22T07:14:02.049Z,-1.44
2023-11-22T07:15:02.318Z,-1.28
2023-11-22T07:16:02.511Z,-1.28
2023-11-22T07:17:02.645Z,-1.28
2023-11-22T07:18:02.842Z,-1.28
2023-11-22T07:19:02.965Z,-1.44
2023-11-22T07:20:03.102Z,-1.28
2023-11-22T07:21:03.244Z,-1.12
2023-11-22T07:22:03.402Z,-1.2
2023-11-22T07:23:03.510Z,-1.2
2023-11-22T07:24:03.663Z,-1.12
2023-11-22T07:25:03.801Z,-1.2
2023-11-22T07:26:03.955Z,-1.28
2023-11-22T07:27:04.107Z,-1.28
2023-11-22T07:28:04.268Z,-1.28
2023-11-22T07:29:04.406Z,-1.2
2023-11-22T07:30:04.580Z,-1.28
2023-11-22T07:31:04.791Z,-1.2
2023-11-22T07:32:04.868Z,-1.12
2023-11-22T07:33:05.117Z,-1.2
2023-11-22T07:34:05.181Z,-1.2
2023-11-22T07:35:05.317Z,-0.88
2023-11-22T07:36:05.473Z,-1.2
2023-11-22T07:37:05.631Z,-1.2
2023-11-22T07:38:05.784Z,-1.12
2023-11-22T07:39:05.925Z,-1.2
2023-11-22T07:40:06.073Z,-1.28
2023-11-22T07:41:06.252Z,-1.2
2023-11-22T07:42:06.380Z,-1.2
2023-11-22T07:43:06.531Z,-1.12
2023-11-22T07:44:06.724Z,-1.28
2023-11-22T07:45:06.846Z,-1.04
2023-11-22T07:46:07.021Z,-1.04
2023-11-22T07:47:07.156Z,-1.12
2023-11-22T07:48:07.333Z,-1.12
2023-11-22T07:49:07.449Z,-1.12
2023-11-22T07:50:07.618Z,-1.2
2023-11-22T07:51:07.772Z,-1.28
2023-11-22T07:52:07.953Z,-1.12
2023-11-22T07:53:08.043Z,-1.12
2023-11-22T07:54:08.155Z,-1.12
2023-11-22T07:55:08.301Z,-1.04
2023-11-22T07:56:08.492Z,-1.12
2023-11-22T07:57:08.623Z,-0.8
2023-11-22T07:58:08.751Z,-0.72
2023-11-22T07:59:08.925Z,-0.8
2023-11-22T08:00:09.219Z,-0.88
2023-11-22T08:01:09.209Z,-0.88
2023-11-22T08:02:09.511Z,-0.8
2023-11-22T08:03:09.564Z,-0.88
2023-11-22T08:04:09.690Z,-1.12
2023-11-22T08:05:10.172Z,-1.04
2023-11-22T08:06:09.970Z,-1.04
2023-11-22T08:07:10.117Z,-1.12
2023-11-22T08:08:10.292Z,-1.04
2023-11-22T08:09:10.422Z,-1.2
2023-11-22T08:10:10.625Z,-1.12
2023-11-22T08:11:10.739Z,-1.2
2023-11-22T08:12:10.884Z,-1.12
2023-11-22T08:13:11.023Z,-1.2
2023-11-22T08:14:11.198Z,-1.2
2023-11-22T08:15:11.330Z,-1.04
2023-11-22T08:16:11.518Z,-1.12
2023-11-22T08:17:11.655Z,-1.04
2023-11-22T08:18:11.848Z,-0.72
2023-11-22T08:19:11.934Z,-0.88
2023-11-22T08:20:12.456Z,-0.72
2023-11-22T08:21:12.235Z,-0.8
2023-11-22T08:22:12.390Z,-1.04
2023-11-22T08:23:12.618Z,-0.88
2023-11-22T08:24:12.714Z,-0.88
2023-11-22T08:25:12.856Z,-1.04
2023-11-22T08:26:13.129Z,-1.12
2023-11-22T08:27:13.146Z,-1.28
2023-11-22T08:28:13.296Z,-1.04
2023-11-22T08:29:13.475Z,-1.12
2023-11-22T08:30:13.594Z,-1.2
2023-11-22T08:31:13.777Z,-1.2
2023-11-22T08:32:13.938Z,-1.2
2023-11-22T08:33:14.021Z,-1.28
2023-11-22T08:34:14.167Z,-1.2
2023-11-22T08:35:14.353Z,-1.2
2023-11-22T08:36:14.483Z,-1.12
2023-11-22T08:37:14.612Z,-1.44
2023-11-22T08:38:14.793Z,-1.28
2023-11-22T08:39:14.877Z,-1.44
2023-11-22T08:40:15.022Z,-1.52
2023-11-22T08:41:15.577Z,-1.52
2023-11-22T08:42:15.976Z,-1.44
2023-11-22T08:43:15.474Z,-1.52
2023-11-22T08:44:15.641Z,-1.44
2023-11-22T08:45:15.788Z,-1.44
2023-11-22T08:46:15.981Z,-1.28
2023-11-22T08:47:16.125Z,-1.44
2023-11-22T08:48:16.279Z,-1.44
2023-11-22T08:49:16.403Z,-1.44
2023-11-22T08:50:16.792Z,-1.6
2023-11-22T08:51:16.688Z,-1.52
2023-11-22T08:52:16.843Z,-1.44
2023-11-22T08:53:17.014Z,-1.44
2023-11-22T08:54:17.151Z,-1.6
2023-11-22T08:55:17.321Z,-1.12
2023-11-22T08:56:17.582Z,-1.12
2023-11-22T08:57:17.604Z,-1.04
2023-11-22T08:58:17.751Z,-1.12
2023-11-22T08:59:18.019Z,-1.2
2023-11-22T09:00:18.056Z,-1.2
2023-11-22T09:01:18.213Z,-1.28
2023-11-22T09:02:18.395Z,-1.44
2023-11-22T09:03:18.752Z,-1.44
2023-11-22T09:04:18.680Z,-1.44
2023-11-22T09:05:18.846Z,-1.2
2023-11-22T09:06:18.956Z,-1.12
2023-11-22T09:07:19.138Z,-1.44
2023-11-22T09:08:22.617Z,-1.28
2023-11-22T09:09:19.417Z,-1.28
2023-11-22T09:10:20.128Z,-1.28
2023-11-22T09:12:20.072Z,-1.44
2023-11-22T09:13:19.925Z,-1.28
2023-11-22T09:14:20.137Z,-1.44
2023-11-22T09:15:20.247Z,-1.2
2023-11-22T09:16:20.383Z,-1.2
2023-11-22T09:17:20.515Z,-1.2
2023-11-22T09:18:20.709Z,-1.28
2023-11-22T09:19:20.886Z,-1.12
2023-11-22T09:20:21.088Z,-0.88
2023-11-22T09:21:21.251Z,-1.12
2023-11-22T09:22:21.438Z,-1.12
2023-11-22T09:23:21.576Z,-1.12
2023-11-22T09:24:21.752Z,-0.88
2023-11-22T09:25:21.895Z,-1.12
2023-11-22T09:26:22.029Z,-1.04
2023-11-22T09:27:22.155Z,-0.88
2023-11-22T09:28:22.307Z,-0.72
2023-11-22T09:29:22.495Z,-0.48
2023-11-22T09:30:22.603Z,-0.8
2023-11-22T09:31:22.757Z,-1.04
2023-11-22T09:32:22.873Z,-1.04
2023-11-22T09:33:23.069Z,-1.04
2023-11-22T09:34:23.154Z,-1.04
2023-11-22T09:35:23.357Z,-1.12
2023-11-22T09:36:23.861Z,-1.12
2023-11-22T09:38:24.257Z,-1.04
2023-11-22T09:39:24.254Z,-1.12
2023-11-22T09:40:23.983Z,-1.2
2023-11-22T09:41:24.141Z,-1.04
2023-11-22T09:42:24.291Z,-1.04
2023-11-22T09:43:24.419Z,-1.12
2023-11-22T09:44:24.642Z,-1.12
2023-11-22T09:45:24.724Z,-1.2
2023-11-22T09:46:24.887Z,-1.12
2023-11-22T09:47:25.087Z,-1.2
2023-11-22T09:48:25.204Z,-1.12
2023-11-22T09:49:25.323Z,-1.04
2023-11-22T09:50:26.142Z,-1.12
2023-11-22T09:51:26.044Z,-1.12
2023-11-22T09:52:26.924Z,-1.12
2023-11-22T09:53:25.903Z,-1.04
2023-11-22T09:54:26.033Z,-1.04
2023-11-22T09:55:26.265Z,-1.12
2023-11-22T09:56:26.407Z,-1.12
2023-11-22T09:57:26.537Z,-0.88
2023-11-22T09:58:26.706Z,-1.12
2023-11-22T09:59:26.867Z,-1.04
2023-11-22T10:00:26.997Z,-0.88
2023-11-22T10:01:27.148Z,-1.12
2023-11-22T10:02:27.393Z,-1.12
2023-11-22T10:03:27.542Z,-0.88
2023-11-22T10:04:27.629Z,-0.88
2023-11-22T10:05:27.778Z,-0.88
2023-11-22T10:06:27.913Z,-0.88
2023-11-22T10:07:28.018Z,-1.12
2023-11-22T10:08:28.190Z,-0.72
2023-11-22T10:09:28.321Z,-1.04
2023-11-22T10:10:28.456Z,-0.88
2023-11-22T10:11:28.655Z,-0.88
2023-11-22T10:12:28.773Z,-0.8
2023-11-22T10:13:28.934Z,-0.88
2023-11-22T10:14:29.096Z,-0.8
2023-11-22T10:15:29.225Z,-1.04
2023-11-22T10:16:29.370Z,-0.88
2023-11-22T10:17:29.586Z,-0.88
2023-11-22T10:18:29.735Z,-0.8
2023-11-22T10:19:29.859Z,-1.04
2023-11-22T10:20:29.993Z,-1.12
2023-11-22T10:21:30.122Z,-1.12
2023-11-22T10:22:30.281Z,-1.04
2023-11-22T10:23:30.459Z,-0.88
2023-11-22T10:24:30.578Z,-1.04
2023-11-22T10:25:30.737Z,-1.04
2023-11-22T10:26:30.904Z,-1.04
2023-11-22T10:27:31.037Z,-0.8
2023-11-22T10:28:31.218Z,-0.88
2023-11-22T10:29:31.360Z,-0.88
2023-11-22T10:30:31.491Z,-0.8
2023-11-22T10:31:31.683Z,-0.88
2023-11-22T10:32:31.826Z,-0.88
2023-11-22T10:33:32.454Z,-1.12
2023-11-22T10:34:32.101Z,-0.88
2023-11-22T10:35:32.286Z,-0.8
2023-11-22T10:36:32.399Z,-0.88
2023-11-22T10:37:32.554Z,-0.72
2023-11-22T10:38:32.739Z,-0.88
2023-11-22T10:39:32.926Z,-1.04
2023-11-22T10:40:33.198Z,-1.04
2023-11-22T10:41:33.159Z,-1.12
2023-11-22T10:42:33.258Z,-1.04
2023-11-22T10:43:33.428Z,-1.12
2023-11-22T10:44:33.604Z,-1.04
2023-11-22T10:45:33.724Z,-1.04
2023-11-22T10:46:33.975Z,-1.12
2023-11-22T10:47:34.113Z,-0.8
2023-11-22T10:48:34.197Z,-0.64
2023-11-22T10:49:34.320Z,-0.72
2023-11-22T10:50:34.482Z,-0.88
2023-11-22T10:51:34.637Z,-0.48
2023-11-22T10:52:34.770Z,-0.48
2023-11-22T10:53:34.981Z,-0.64
2023-11-22T10:54:35.085Z,-0.48
2023-11-22T10:55:35.231Z,-0.64
2023-11-22T10:56:35.411Z,-0.48
2023-11-22T10:57:35.528Z,-0.48
2023-11-22T10:58:35.688Z,-0.72
2023-11-22T10:59:35.849Z,-0.8
2023-11-22T11:00:36.009Z,-0.64
2023-11-22T11:01:36.164Z,-0.64
2023-11-22T11:02:36.340Z,-0.4
2023-11-22T11:03:36.506Z,-0.64
2023-11-22T11:04:36.601Z,-0.72
2023-11-22T11:05:36.780Z,-0.88
2023-11-22T11:06:36.907Z,-0.8
2023-11-22T11:07:37.047Z,-0.64
2023-11-22T11:08:37.225Z,-0.72
2023-11-22T11:09:37.361Z,-0.48
2023-11-22T11:10:37.497Z,-0.72
2023-11-22T11:11:37.670Z,-0.72
2023-11-22T11:12:37.754Z,-0.72
2023-11-22T11:13:37.914Z,-0.72
2023-11-22T11:14:38.127Z,-0.8
2023-11-22T11:15:38.166Z,-0.32
2023-11-22T11:16:38.346Z,-0.64
2023-11-22T11:17:38.571Z,-0.72
2023-11-22T11:18:38.654Z,-0.72
2023-11-22T11:19:38.810Z,-0.8
2023-11-22T11:20:38.896Z,-0.72
2023-11-22T11:21:39.020Z,-0.8
2023-11-22T11:22:39.169Z,-0.72
2023-11-22T11:23:39.332Z,-0.48
2023-11-22T11:24:39.469Z,-0.64
2023-11-22T11:25:39.620Z,-0.72
2023-11-22T11:26:39.822Z,-0.8
2023-11-22T11:27:39.923Z,-0.88
2023-11-22T11:28:40.077Z,-0.72
2023-11-22T11:29:40.239Z,-0.8
2023-11-22T11:30:40.380Z,-0.48
2023-11-22T11:31:40.893Z,-0.48
2023-11-22T11:32:40.749Z,-0.32
2023-11-22T11:33:40.836Z,-0.48
2023-11-22T11:34:40.982Z,-0.64
2023-11-22T11:35:41.144Z,-0.72
2023-11-22T11:36:41.242Z,-0.8
2023-11-22T11:37:41.396Z,-0.72
2023-11-22T11:38:41.593Z,-0.64
2023-11-22T11:39:41.697Z,-0.72
2023-11-22T11:40:41.847Z,-0.8
2023-11-22T11:41:42.041Z,-0.72
2023-11-22T11:43:42.360Z,-0.72
2023-11-22T11:44:42.476Z,-0.72
2023-11-22T11:45:42.606Z,-0.64
2023-11-22T11:46:42.768Z,-0.64
2023-11-22T11:47:42.933Z,-0.4
2023-11-22T11:48:43.110Z,-0.4
2023-11-22T11:49:43.209Z,-0.32
2023-11-22T11:50:43.424Z,-0.48
2023-11-22T11:51:43.563Z,-0.64
2023-11-22T11:52:43.720Z,-0.24
2023-11-22T11:53:43.942Z,-0.48
2023-11-22T11:54:44.092Z,-0.4
2023-11-22T11:55:44.172Z,-0.48
2023-11-22T11:56:44.349Z,-0.64
2023-11-22T11:57:44.465Z,-0.64
2023-11-22T11:58:44.637Z,-0.72
2023-11-22T11:59:44.781Z,-0.72
2023-11-22T12:00:44.926Z,-0.32
2023-11-22T12:01:45.086Z,-0.48
2023-11-22T12:02:45.248Z,-0.64
2023-11-22T12:03:45.594Z,-0.72
2023-11-22T12:04:45.581Z,-0.48
2023-11-22T12:05:45.697Z,-0.32
2023-11-22T12:06:45.786Z,-0.4
2023-11-22T12:07:45.937Z,-0.32
2023-11-22T12:08:46.130Z,-0.08
2023-11-22T12:09:46.246Z,-0.24
2023-11-22T12:10:46.393Z,-0.48
2023-11-22T12:11:46.593Z,-0.48
2023-11-22T12:12:46.699Z,-0.48
2023-11-22T12:13:46.854Z,-0.72
2023-11-22T12:14:47.048Z,-0.88
2023-11-22T12:15:47.155Z,-0.72
2023-11-22T12:16:47.300Z,-0.72
2023-11-22T12:17:47.549Z,-0.8
2023-11-22T12:18:47.650Z,-0.8
2023-11-22T12:19:47.749Z,-0.8
2023-11-22T12:20:47.926Z,-0.8
2023-11-22T12:21:48.061Z,-0.64
2023-11-22T12:22:48.213Z,-0.64
2023-11-22T12:23:49.111Z,-0.72
2023-11-22T12:24:48.511Z,-0.48
2023-11-22T12:25:48.683Z,-0.64
2023-11-22T12:26:48.874Z,-0.48
2023-11-22T12:27:48.967Z,-0.4
2023-11-22T12:28:54.099Z,-0.64
2023-11-22T12:29:49.302Z,-0.72
2023-11-22T12:30:49.438Z,-0.8
2023-11-22T12:31:49.604Z,-0.88
2023-11-22T12:32:49.811Z,-0.8
2023-11-22T12:33:51.446Z,-0.8
2023-11-22T12:34:50.031Z,-0.8
2023-11-22T12:35:50.244Z,-0.88
2023-11-22T12:36:50.290Z,-0.72
2023-11-22T12:37:50.463Z,-0.8
2023-11-22T12:38:50.606Z,-0.72
2023-11-22T12:39:50.732Z,-0.72
2023-11-22T12:40:50.883Z,-0.88
2023-11-22T12:41:55.905Z,-0.8
2023-11-22T12:42:51.184Z,-0.72
2023-11-22T12:43:51.433Z,-0.48
2023-11-22T12:44:51.556Z,-0.64
2023-11-22T12:45:51.646Z,-0.8
2023-11-22T12:46:51.812Z,-0.8
2023-11-22T12:47:52.014Z,-0.8
2023-11-22T12:48:52.050Z,-0.8
2023-11-22T12:49:52.208Z,-0.88
2023-11-22T12:50:52.371Z,-0.8
2023-11-22T12:51:52.508Z,-0.72
2023-11-22T12:52:52.660Z,-0.72
2023-11-22T12:53:52.826Z,-0.64
2023-11-22T12:54:52.968Z,-0.48
2023-11-22T12:55:53.067Z,-0.64
2023-11-22T12:56:53.325Z,-0.64
2023-11-22T12:57:53.371Z,-0.64
2023-11-22T12:58:53.514Z,-0.72
2023-11-22T12:59:53.721Z,-0.8
2023-11-22T13:00:53.839Z,-0.88
2023-11-22T13:01:54.008Z,-0.88
2023-11-22T13:03:00.376Z,-0.64
2023-11-22T13:03:54.313Z,-0.8
2023-11-22T13:04:54.528Z,-0.88
2023-11-22T13:05:54.630Z,-0.88
2023-11-22T13:06:54.727Z,-0.88
2023-11-22T13:07:54.885Z,-0.8
2023-11-22T13:08:55.051Z,-0.88
2023-11-22T13:09:55.182Z,-0.88
2023-11-22T13:10:56.609Z,-0.8
2023-11-22T13:11:55.536Z,-0.72
2023-11-22T13:12:55.636Z,-0.8
2023-11-22T13:13:55.788Z,-0.72